sensor_id;sensor_type;location;lat;lon;timestamp;temperature;humidity
9949;DHT22;5013;51.840;8.276;2024-02-23T00:01:28;8.60;99.90
9949;DHT22;5013;51.840;8.276;2024-02-23T00:03:54;8.50;99.90
9949;DHT22;5013;51.840;8.276;2024-02-23T00:06:20;8.40;99.90
9949;DHT22;5013;51.840;8.276;2024-02-23T00:08:46;8.40;99.90
9949;DHT22;5013;51.840;8.276;2024-02-23T00:11:12;8.30;1.00
9949;DHT22;5013;51.840;8.276;2024-02-23T00:13:37;8.20;99.90
9949;DHT22;5013;51.840;8.276;2024-02-23T00:16:03;7.90;1.00
9949;DHT22;5013;51.840;8.276;2024-02-23T00:18:29;7.90;1.00
9949;DHT22;5013;51.840;8.276;2024-02-23T00:20:55;7.80;1.00
9949;DHT22;5013;51.840;8.276;2024-02-23T00:23:22;7.70;99.90
9949;DHT22;5013;51.840;8.276;2024-02-23T00:25:47;7.60;99.90
9949;DHT22;5013;51.840;8.276;2024-02-23T00:28:13;7.50;1.00
9949;DHT22;5013;51.840;8.276;2024-02-23T00:30:39;7.50;1.00
9949;DHT22;5013;51.840;8.276;2024-02-23T00:33:05;7.50;1.00
9949;DHT22;5013;51.840;8.276;2024-02-23T00:35:30;7.40;99.90
9949;DHT22;5013;51.840;8.276;2024-02-23T00:37:56;7.10;44.00
9949;DHT22;5013;51.840;8.276;2024-02-23T00:40:21;7.00;1.00
9949;DHT22;5013;51.840;8.276;2024-02-23T00:42:48;6.80;99.90
9949;DHT22;5013;51.840;8.276;2024-02-23T00:45:14;6.80;99.90
9949;DHT22;5013;51.840;8.276;2024-02-23T00:47:40;6.80;99.90
9949;DHT22;5013;51.840;8.276;2024-02-23T00:50:06;6.70;1.00
9949;DHT22;5013;51.840;8.276;2024-02-23T00:52:31;6.70;1.00
9949;DHT22;5013;51.840;8.276;2024-02-23T00:54:57;6.60;1.00
9949;DHT22;5013;51.840;8.276;2024-02-23T00:57:23;6.60;99.90
9949;DHT22;5013;51.840;8.276;2024-02-23T00:59:55;6.60;99.90
9949;DHT22;5013;51.840;8.276;2024-02-23T01:02:21;6.50;99.90
9949;DHT22;5013;51.840;8.276;2024-02-23T01:04:47;6.50;1.00
9949;DHT22;5013;51.840;8.276;2024-02-23T01:07:12;6.40;1.00
9949;DHT22;5013;51.840;8.276;2024-02-23T01:09:38;6.40;99.90
9949;DHT22;5013;51.840;8.276;2024-02-23T01:12:04;6.40;1.00
9949;DHT22;5013;51.840;8.276;2024-02-23T01:14:29;6.40;1.00
9949;DHT22;5013;51.840;8.276;2024-02-23T01:16:55;6.40;1.00
9949;DHT22;5013;51.840;8.276;2024-02-23T01:19:20;6.40;1.00
9949;DHT22;5013;51.840;8.276;2024-02-23T01:21:46;6.40;99.90
9949;DHT22;5013;51.840;8.276;2024-02-23T01:24:12;6.40;99.90
9949;DHT22;5013;51.840;8.276;2024-02-23T01:26:37;6.30;99.90
9949;DHT22;5013;51.840;8.276;2024-02-23T01:29:03;6.20;99.90
9949;DHT22;5013;51.840;8.276;2024-02-23T01:31:29;6.10;99.90
9949;DHT22;5013;51.840;8.276;2024-02-23T01:33:54;6.10;99.90
9949;DHT22;5013;51.840;8.276;2024-02-23T01:36:20;6.10;1.00
9949;DHT22;5013;51.840;8.276;2024-02-23T01:38:45;6.10;1.00
9949;DHT22;5013;51.840;8.276;2024-02-23T01:41:12;6.10;1.00
9949;DHT22;5013;51.840;8.276;2024-02-23T01:43:37;6.10;99.90
9949;DHT22;5013;51.840;8.276;2024-02-23T01:46:03;6.10;99.90
9949;DHT22;5013;51.840;8.276;2024-02-23T01:48:32;6.10;99.90
9949;DHT22;5013;51.840;8.276;2024-02-23T01:50:58;6.10;99.90
9949;DHT22;5013;51.840;8.276;2024-02-23T01:53:24;6.10;99.90
9949;DHT22;5013;51.840;8.276;2024-02-23T01:55:51;6.00;1.00
9949;DHT22;5013;51.840;8.276;2024-02-23T01:58:17;6.00;99.90
9949;DHT22;5013;51.840;8.276;2024-02-23T02:00:43;6.00;99.90
9949;DHT22;5013;51.840;8.276;2024-02-23T02:03:09;6.00;99.90
9949;DHT22;5013;51.840;8.276;2024-02-23T02:05:36;5.90;99.90
9949;DHT22;5013;51.840;8.276;2024-02-23T02:08:02;5.90;1.00
9949;DHT22;5013;51.840;8.276;2024-02-23T02:10:28;5.90;1.00
9949;DHT22;5013;51.840;8.276;2024-02-23T02:12:54;5.90;1.00
9949;DHT22;5013;51.840;8.276;2024-02-23T02:15:19;5.90;1.00
9949;DHT22;5013;51.840;8.276;2024-02-23T02:17:47;6.00;99.90
9949;DHT22;5013;51.840;8.276;2024-02-23T02:20:13;6.00;1.00
9949;DHT22;5013;51.840;8.276;2024-02-23T02:22:39;6.10;1.00
9949;DHT22;5013;51.840;8.276;2024-02-23T02:25:05;6.10;1.00
9949;DHT22;5013;51.840;8.276;2024-02-23T02:27:32;6.10;1.00
9949;DHT22;5013;51.840;8.276;2024-02-23T02:29:57;6.10;99.90
9949;DHT22;5013;51.840;8.276;2024-02-23T02:32:23;6.00;1.00
9949;DHT22;5013;51.840;8.276;2024-02-23T02:34:49;6.00;99.90
9949;DHT22;5013;51.840;8.276;2024-02-23T02:37:15;6.00;1.00
9949;DHT22;5013;51.840;8.276;2024-02-23T02:39:40;6.00;1.00
9949;DHT22;5013;51.840;8.276;2024-02-23T02:42:06;6.00;1.00
9949;DHT22;5013;51.840;8.276;2024-02-23T02:44:32;6.00;99.90
9949;DHT22;5013;51.840;8.276;2024-02-23T02:46:57;6.00;99.90
9949;DHT22;5013;51.840;8.276;2024-02-23T02:49:23;6.00;99.90
9949;DHT22;5013;51.840;8.276;2024-02-23T02:51:49;5.90;99.90
9949;DHT22;5013;51.840;8.276;2024-02-23T02:54:15;6.00;99.90
9949;DHT22;5013;51.840;8.276;2024-02-23T02:56:46;6.00;99.90
9949;DHT22;5013;51.840;8.276;2024-02-23T02:59:12;6.00;99.90
9949;DHT22;5013;51.840;8.276;2024-02-23T03:01:38;6.00;99.90
9949;DHT22;5013;51.840;8.276;2024-02-23T03:04:04;6.00;99.90
9949;DHT22;5013;51.840;8.276;2024-02-23T03:06:30;6.00;1.00
9949;DHT22;5013;51.840;8.276;2024-02-23T03:08:55;6.10;1.00
9949;DHT22;5013;51.840;8.276;2024-02-23T03:11:21;6.10;1.00
9949;DHT22;5013;51.840;8.276;2024-02-23T03:13:46;6.20;1.00
9949;DHT22;5013;51.840;8.276;2024-02-23T03:16:16;6.20;1.00
9949;DHT22;5013;51.840;8.276;2024-02-23T03:18:42;6.30;1.00
9949;DHT22;5013;51.840;8.276;2024-02-23T03:21:07;6.30;99.90
9949;DHT22;5013;51.840;8.276;2024-02-23T03:23:35;6.30;99.90
9949;DHT22;5013;51.840;8.276;2024-02-23T03:26:00;6.30;99.90
9949;DHT22;5013;51.840;8.276;2024-02-23T03:28:26;6.30;99.90
9949;DHT22;5013;51.840;8.276;2024-02-23T03:30:52;6.30;99.90
9949;DHT22;5013;51.840;8.276;2024-02-23T03:33:18;6.30;22.80
9949;DHT22;5013;51.840;8.276;2024-02-23T03:35:43;6.40;1.00
9949;DHT22;5013;51.840;8.276;2024-02-23T03:38:09;6.30;1.00
9949;DHT22;5013;51.840;8.276;2024-02-23T03:40:34;6.30;1.00
9949;DHT22;5013;51.840;8.276;2024-02-23T03:43:01;6.30;1.00
9949;DHT22;5013;51.840;8.276;2024-02-23T03:45:27;6.30;1.00
9949;DHT22;5013;51.840;8.276;2024-02-23T03:47:53;6.30;1.00
9949;DHT22;5013;51.840;8.276;2024-02-23T03:50:18;6.30;1.00
9949;DHT22;5013;51.840;8.276;2024-02-23T03:52:44;6.30;1.00
9949;DHT22;5013;51.840;8.276;2024-02-23T03:55:10;6.20;15.70
9949;DHT22;5013;51.840;8.276;2024-02-23T03:57:35;6.20;91.40
9949;DHT22;5013;51.840;8.276;2024-02-23T04:00:01;6.10;1.00
9949;DHT22;5013;51.840;8.276;2024-02-23T04:02:27;6.10;1.00
9949;DHT22;5013;51.840;8.276;2024-02-23T04:04:53;6.10;1.00
9949;DHT22;5013;51.840;8.276;2024-02-23T04:07:19;6.10;1.00
9949;DHT22;5013;51.840;8.276;2024-02-23T04:09:45;6.20;1.00
9949;DHT22;5013;51.840;8.276;2024-02-23T04:12:10;6.20;1.00
9949;DHT22;5013;51.840;8.276;2024-02-23T04:14:36;6.20;1.00
9949;DHT22;5013;51.840;8.276;2024-02-23T04:17:05;6.20;1.00
9949;DHT22;5013;51.840;8.276;2024-02-23T04:19:30;6.10;1.00
9949;DHT22;5013;51.840;8.276;2024-02-23T04:21:56;6.10;1.00
9949;DHT22;5013;51.840;8.276;2024-02-23T04:24:22;6.10;1.00
9949;DHT22;5013;51.840;8.276;2024-02-23T04:26:47;6.00;1.00
9949;DHT22;5013;51.840;8.276;2024-02-23T04:29:13;6.00;1.00
9949;DHT22;5013;51.840;8.276;2024-02-23T04:31:38;6.00;1.00
9949;DHT22;5013;51.840;8.276;2024-02-23T04:34:04;6.00;1.00
9949;DHT22;5013;51.840;8.276;2024-02-23T04:36:29;6.00;1.00
9949;DHT22;5013;51.840;8.276;2024-02-23T04:38:55;5.90;1.00
9949;DHT22;5013;51.840;8.276;2024-02-23T04:41:20;5.90;25.80
9949;DHT22;5013;51.840;8.276;2024-02-23T04:43:47;5.90;33.90
9949;DHT22;5013;51.840;8.276;2024-02-23T04:46:13;5.90;99.90
9949;DHT22;5013;51.840;8.276;2024-02-23T04:48:38;5.90;99.90
9949;DHT22;5013;51.840;8.276;2024-02-23T04:51:04;5.90;99.90
9949;DHT22;5013;51.840;8.276;2024-02-23T04:53:30;5.90;99.90
9949;DHT22;5013;51.840;8.276;2024-02-23T04:55:56;5.90;99.90
9949;DHT22;5013;51.840;8.276;2024-02-23T04:58:21;5.90;99.90
9949;DHT22;5013;51.840;8.276;2024-02-23T05:00:47;5.90;99.90
9949;DHT22;5013;51.840;8.276;2024-02-23T05:03:13;5.80;99.90
9949;DHT22;5013;51.840;8.276;2024-02-23T05:05:39;5.80;99.90
9949;DHT22;5013;51.840;8.276;2024-02-23T05:08:05;5.70;99.90
9949;DHT22;5013;51.840;8.276;2024-02-23T05:10:30;5.80;1.00
9949;DHT22;5013;51.840;8.276;2024-02-23T05:12:56;5.80;1.00
9949;DHT22;5013;51.840;8.276;2024-02-23T05:15:21;5.80;1.00
9949;DHT22;5013;51.840;8.276;2024-02-23T05:17:47;5.80;1.00
9949;DHT22;5013;51.840;8.276;2024-02-23T05:20:14;5.80;99.90
9949;DHT22;5013;51.840;8.276;2024-02-23T05:22:39;5.90;99.90
9949;DHT22;5013;51.840;8.276;2024-02-23T05:25:06;5.80;99.90
9949;DHT22;5013;51.840;8.276;2024-02-23T05:27:32;5.90;99.90
9949;DHT22;5013;51.840;8.276;2024-02-23T05:29:58;5.90;99.90
9949;DHT22;5013;51.840;8.276;2024-02-23T05:32:42;5.90;99.90
9949;DHT22;5013;51.840;8.276;2024-02-23T05:35:07;6.00;99.90
9949;DHT22;5013;51.840;8.276;2024-02-23T05:37:34;6.00;99.90
9949;DHT22;5013;51.840;8.276;2024-02-23T05:40:00;6.00;23.30
9949;DHT22;5013;51.840;8.276;2024-02-23T05:42:29;6.10;6.10
9949;DHT22;5013;51.840;8.276;2024-02-23T05:44:54;6.10;2.30
9949;DHT22;5013;51.840;8.276;2024-02-23T05:47:20;6.10;10.90
9949;DHT22;5013;51.840;8.276;2024-02-23T05:49:46;6.00;1.00
9949;DHT22;5013;51.840;8.276;2024-02-23T05:52:12;6.00;1.00
9949;DHT22;5013;51.840;8.276;2024-02-23T05:54:38;6.00;6.30
9949;DHT22;5013;51.840;8.276;2024-02-23T05:57:03;6.00;1.00
9949;DHT22;5013;51.840;8.276;2024-02-23T05:59:30;6.00;15.40
9949;DHT22;5013;51.840;8.276;2024-02-23T06:01:55;6.00;1.00
9949;DHT22;5013;51.840;8.276;2024-02-23T06:04:23;6.00;1.00
9949;DHT22;5013;51.840;8.276;2024-02-23T06:06:49;6.00;1.00
9949;DHT22;5013;51.840;8.276;2024-02-23T06:09:14;6.10;1.00
9949;DHT22;5013;51.840;8.276;2024-02-23T06:11:41;6.10;1.00
9949;DHT22;5013;51.840;8.276;2024-02-23T06:14:07;6.10;1.00
9949;DHT22;5013;51.840;8.276;2024-02-23T06:16:33;6.10;1.00
9949;DHT22;5013;51.840;8.276;2024-02-23T06:18:59;6.10;1.00
9949;DHT22;5013;51.840;8.276;2024-02-23T06:21:24;6.10;1.00
9949;DHT22;5013;51.840;8.276;2024-02-23T06:23:50;6.10;1.00
9949;DHT22;5013;51.840;8.276;2024-02-23T06:26:16;6.10;1.00
9949;DHT22;5013;51.840;8.276;2024-02-23T06:28:42;6.00;1.00
9949;DHT22;5013;51.840;8.276;2024-02-23T06:31:08;6.00;1.00
9949;DHT22;5013;51.840;8.276;2024-02-23T06:33:34;6.00;1.00
9949;DHT22;5013;51.840;8.276;2024-02-23T06:35:59;6.10;1.00
9949;DHT22;5013;51.840;8.276;2024-02-23T06:38:25;6.00;1.00
9949;DHT22;5013;51.840;8.276;2024-02-23T06:40:51;6.00;1.00
9949;DHT22;5013;51.840;8.276;2024-02-23T06:43:17;5.90;19.90
9949;DHT22;5013;51.840;8.276;2024-02-23T06:45:42;5.90;1.00
9949;DHT22;5013;51.840;8.276;2024-02-23T06:48:08;6.00;1.00
9949;DHT22;5013;51.840;8.276;2024-02-23T06:50:34;5.90;6.40
9949;DHT22;5013;51.840;8.276;2024-02-23T06:53:00;6.00;1.00
9949;DHT22;5013;51.840;8.276;2024-02-23T06:55:26;5.90;1.00
9949;DHT22;5013;51.840;8.276;2024-02-23T06:57:51;5.90;1.00
9949;DHT22;5013;51.840;8.276;2024-02-23T07:00:17;5.90;1.00
9949;DHT22;5013;51.840;8.276;2024-02-23T07:02:42;5.90;1.00
9949;DHT22;5013;51.840;8.276;2024-02-23T07:05:08;5.90;1.00
9949;DHT22;5013;51.840;8.276;2024-02-23T07:07:34;5.80;1.00
9949;DHT22;5013;51.840;8.276;2024-02-23T07:10:00;5.90;23.40
9949;DHT22;5013;51.840;8.276;2024-02-23T07:12:26;5.90;1.00
9949;DHT22;5013;51.840;8.276;2024-02-23T07:14:54;5.90;1.00
9949;DHT22;5013;51.840;8.276;2024-02-23T07:17:20;5.90;1.00
9949;DHT22;5013;51.840;8.276;2024-02-23T07:19:46;5.90;1.00
9949;DHT22;5013;51.840;8.276;2024-02-23T07:22:12;6.00;1.00
9949;DHT22;5013;51.840;8.276;2024-02-23T07:24:42;6.00;1.00
9949;DHT22;5013;51.840;8.276;2024-02-23T07:27:07;6.00;1.00
9949;DHT22;5013;51.840;8.276;2024-02-23T07:29:33;6.00;1.00
9949;DHT22;5013;51.840;8.276;2024-02-23T07:31:58;6.10;1.00
9949;DHT22;5013;51.840;8.276;2024-02-23T07:34:24;6.10;1.00
9949;DHT22;5013;51.840;8.276;2024-02-23T07:36:53;6.20;1.00
9949;DHT22;5013;51.840;8.276;2024-02-23T07:39:19;6.20;1.00
9949;DHT22;5013;51.840;8.276;2024-02-23T07:41:45;6.20;1.00
9949;DHT22;5013;51.840;8.276;2024-02-23T07:44:11;6.30;1.00
9949;DHT22;5013;51.840;8.276;2024-02-23T07:46:36;6.40;1.00
9949;DHT22;5013;51.840;8.276;2024-02-23T07:49:02;6.40;1.00
9949;DHT22;5013;51.840;8.276;2024-02-23T07:51:28;6.50;1.00
9949;DHT22;5013;51.840;8.276;2024-02-23T07:53:54;6.60;1.00
9949;DHT22;5013;51.840;8.276;2024-02-23T07:56:20;6.60;1.00
9949;DHT22;5013;51.840;8.276;2024-02-23T07:58:46;6.60;99.90
9949;DHT22;5013;51.840;8.276;2024-02-23T08:01:12;6.70;1.00
9949;DHT22;5013;51.840;8.276;2024-02-23T08:03:40;6.70;1.00
9949;DHT22;5013;51.840;8.276;2024-02-23T08:06:05;6.80;1.00
9949;DHT22;5013;51.840;8.276;2024-02-23T08:08:31;6.80;99.90
9949;DHT22;5013;51.840;8.276;2024-02-23T08:11:03;6.90;1.00
9949;DHT22;5013;51.840;8.276;2024-02-23T08:13:29;7.00;1.00
9949;DHT22;5013;51.840;8.276;2024-02-23T08:15:55;7.10;99.90
9949;DHT22;5013;51.840;8.276;2024-02-23T08:18:20;7.20;99.90
9949;DHT22;5013;51.840;8.276;2024-02-23T08:20:48;7.30;99.90
9949;DHT22;5013;51.840;8.276;2024-02-23T08:23:13;7.40;99.90
9949;DHT22;5013;51.840;8.276;2024-02-23T08:25:39;7.40;99.90
9949;DHT22;5013;51.840;8.276;2024-02-23T08:28:04;7.40;99.90
9949;DHT22;5013;51.840;8.276;2024-02-23T08:30:31;7.40;99.90
9949;DHT22;5013;51.840;8.276;2024-02-23T08:32:57;7.50;99.90
9949;DHT22;5013;51.840;8.276;2024-02-23T08:35:22;7.40;99.90
9949;DHT22;5013;51.840;8.276;2024-02-23T08:37:49;7.40;99.90
9949;DHT22;5013;51.840;8.276;2024-02-23T08:40:14;7.40;99.90
9949;DHT22;5013;51.840;8.276;2024-02-23T08:42:40;7.50;99.90
9949;DHT22;5013;51.840;8.276;2024-02-23T08:45:06;7.50;99.90
9949;DHT22;5013;51.840;8.276;2024-02-23T08:47:31;7.50;99.90
9949;DHT22;5013;51.840;8.276;2024-02-23T08:49:59;7.50;99.90
9949;DHT22;5013;51.840;8.276;2024-02-23T08:52:25;7.70;99.90
9949;DHT22;5013;51.840;8.276;2024-02-23T08:54:51;7.70;99.90
9949;DHT22;5013;51.840;8.276;2024-02-23T08:57:17;7.80;99.90
9949;DHT22;5013;51.840;8.276;2024-02-23T08:59:45;7.90;99.90
9949;DHT22;5013;51.840;8.276;2024-02-23T09:02:11;7.80;99.90
9949;DHT22;5013;51.840;8.276;2024-02-23T09:04:36;7.70;99.90
9949;DHT22;5013;51.840;8.276;2024-02-23T09:07:02;7.80;99.90
9949;DHT22;5013;51.840;8.276;2024-02-23T09:09:28;7.80;99.90
9949;DHT22;5013;51.840;8.276;2024-02-23T09:11:53;7.80;99.90
9949;DHT22;5013;51.840;8.276;2024-02-23T09:14:19;7.80;99.90
9949;DHT22;5013;51.840;8.276;2024-02-23T09:16:44;7.90;99.90
9949;DHT22;5013;51.840;8.276;2024-02-23T09:19:11;7.90;99.90
9949;DHT22;5013;51.840;8.276;2024-02-23T09:21:37;8.00;99.90
9949;DHT22;5013;51.840;8.276;2024-02-23T09:24:03;8.10;99.90
9949;DHT22;5013;51.840;8.276;2024-02-23T09:26:29;8.10;99.90
9949;DHT22;5013;51.840;8.276;2024-02-23T09:28:55;8.20;99.90
9949;DHT22;5013;51.840;8.276;2024-02-23T09:31:20;8.00;99.90
9949;DHT22;5013;51.840;8.276;2024-02-23T09:33:46;8.10;99.90
9949;DHT22;5013;51.840;8.276;2024-02-23T09:36:12;8.20;99.90
9949;DHT22;5013;51.840;8.276;2024-02-23T09:38:37;8.40;99.90
9949;DHT22;5013;51.840;8.276;2024-02-23T09:41:03;8.50;99.90
9949;DHT22;5013;51.840;8.276;2024-02-23T09:43:30;8.60;99.90
9949;DHT22;5013;51.840;8.276;2024-02-23T09:45:57;8.50;99.90
9949;DHT22;5013;51.840;8.276;2024-02-23T09:48:23;8.40;99.90
9949;DHT22;5013;51.840;8.276;2024-02-23T09:50:50;8.50;99.90
9949;DHT22;5013;51.840;8.276;2024-02-23T09:53:17;8.50;99.90
9949;DHT22;5013;51.840;8.276;2024-02-23T09:55:45;8.30;99.90
9949;DHT22;5013;51.840;8.276;2024-02-23T09:58:12;8.30;99.90
9949;DHT22;5013;51.840;8.276;2024-02-23T10:00:39;8.50;99.90
9949;DHT22;5013;51.840;8.276;2024-02-23T10:03:05;8.50;99.90
9949;DHT22;5013;51.840;8.276;2024-02-23T10:05:31;8.50;96.40
9949;DHT22;5013;51.840;8.276;2024-02-23T10:07:57;8.50;32.40
9949;DHT22;5013;51.840;8.276;2024-02-23T10:10:30;8.50;37.70
9949;DHT22;5013;51.840;8.276;2024-02-23T10:12:57;8.50;19.70
9949;DHT22;5013;51.840;8.276;2024-02-23T10:15:23;8.50;50.40
9949;DHT22;5013;51.840;8.276;2024-02-23T10:17:48;8.40;49.10
9949;DHT22;5013;51.840;8.276;2024-02-23T10:20:14;8.40;88.40
9949;DHT22;5013;51.840;8.276;2024-02-23T10:22:40;8.50;99.90
9949;DHT22;5013;51.840;8.276;2024-02-23T10:25:05;8.40;70.50
9949;DHT22;5013;51.840;8.276;2024-02-23T10:27:31;8.40;64.40
9949;DHT22;5013;51.840;8.276;2024-02-23T10:29:56;8.40;65.00
9949;DHT22;5013;51.840;8.276;2024-02-23T10:32:23;8.30;87.50
9949;DHT22;5013;51.840;8.276;2024-02-23T10:34:49;8.30;99.90
9949;DHT22;5013;51.840;8.276;2024-02-23T10:37:16;8.40;95.60
9949;DHT22;5013;51.840;8.276;2024-02-23T10:39:42;8.40;41.60
9949;DHT22;5013;51.840;8.276;2024-02-23T10:42:09;8.40;52.40
9949;DHT22;5013;51.840;8.276;2024-02-23T10:44:35;8.60;57.60
9949;DHT22;5013;51.840;8.276;2024-02-23T10:47:02;8.70;44.80
9949;DHT22;5013;51.840;8.276;2024-02-23T10:49:29;8.80;30.00
9949;DHT22;5013;51.840;8.276;2024-02-23T10:51:56;9.00;27.90
9949;DHT22;5013;51.840;8.276;2024-02-23T10:54:22;9.10;15.50
9949;DHT22;5013;51.840;8.276;2024-02-23T10:56:50;9.20;15.50
9949;DHT22;5013;51.840;8.276;2024-02-23T10:59:17;9.20;1.00
9949;DHT22;5013;51.840;8.276;2024-02-23T11:01:54;9.10;4.80
9949;DHT22;5013;51.840;8.276;2024-02-23T11:04:23;9.20;1.00
9949;DHT22;5013;51.840;8.276;2024-02-23T11:06:50;9.00;1.00
9949;DHT22;5013;51.840;8.276;2024-02-23T11:09:16;9.00;1.00
9949;DHT22;5013;51.840;8.276;2024-02-23T11:11:58;9.20;1.00
9949;DHT22;5013;51.840;8.276;2024-02-23T11:14:31;9.20;1.00
9949;DHT22;5013;51.840;8.276;2024-02-23T11:16:58;9.40;1.00
9949;DHT22;5013;51.840;8.276;2024-02-23T11:19:32;9.30;1.00
9949;DHT22;5013;51.840;8.276;2024-02-23T11:21:58;9.00;1.00
9949;DHT22;5013;51.840;8.276;2024-02-23T11:24:28;9.00;12.80
9949;DHT22;5013;51.840;8.276;2024-02-23T11:27:00;9.00;18.50
9949;DHT22;5013;51.840;8.276;2024-02-23T11:29:33;9.10;19.20
9949;DHT22;5013;51.840;8.276;2024-02-23T11:32:00;9.10;29.10
9949;DHT22;5013;51.840;8.276;2024-02-23T11:34:29;9.00;23.20
9949;DHT22;5013;51.840;8.276;2024-02-23T11:36:55;9.10;18.60
9949;DHT22;5013;51.840;8.276;2024-02-23T11:39:22;9.30;30.70
9949;DHT22;5013;51.840;8.276;2024-02-23T11:41:48;9.40;2.60
9949;DHT22;5013;51.840;8.276;2024-02-23T11:44:15;9.40;1.00
9949;DHT22;5013;51.840;8.276;2024-02-23T11:46:43;9.40;1.00
9949;DHT22;5013;51.840;8.276;2024-02-23T11:49:09;9.40;1.00
9949;DHT22;5013;51.840;8.276;2024-02-23T11:51:35;9.40;1.00
9949;DHT22;5013;51.840;8.276;2024-02-23T11:54:00;9.60;1.00
9949;DHT22;5013;51.840;8.276;2024-02-23T11:56:26;9.80;1.00
9949;DHT22;5013;51.840;8.276;2024-02-23T11:58:54;9.80;1.00
9949;DHT22;5013;51.840;8.276;2024-02-23T12:01:20;9.80;1.00
9949;DHT22;5013;51.840;8.276;2024-02-23T12:03:46;9.80;1.00
9949;DHT22;5013;51.840;8.276;2024-02-23T12:06:11;9.80;1.00
9949;DHT22;5013;51.840;8.276;2024-02-23T12:08:38;9.70;1.00
9949;DHT22;5013;51.840;8.276;2024-02-23T12:11:08;9.50;1.00
9949;DHT22;5013;51.840;8.276;2024-02-23T12:13:35;9.50;1.00
9949;DHT22;5013;51.840;8.276;2024-02-23T12:16:01;9.50;1.00
9949;DHT22;5013;51.840;8.276;2024-02-23T12:18:27;9.60;1.00
9949;DHT22;5013;51.840;8.276;2024-02-23T12:20:59;9.70;1.00
9949;DHT22;5013;51.840;8.276;2024-02-23T12:23:27;9.70;1.00
9949;DHT22;5013;51.840;8.276;2024-02-23T12:25:56;9.90;1.00
9949;DHT22;5013;51.840;8.276;2024-02-23T12:28:23;10.10;1.00
9949;DHT22;5013;51.840;8.276;2024-02-23T12:31:05;10.20;1.00
9949;DHT22;5013;51.840;8.276;2024-02-23T12:33:38;10.40;1.00
9949;DHT22;5013;51.840;8.276;2024-02-23T12:36:08;10.70;1.00
9949;DHT22;5013;51.840;8.276;2024-02-23T12:38:35;10.90;1.00
9949;DHT22;5013;51.840;8.276;2024-02-23T12:41:02;11.00;1.00
9949;DHT22;5013;51.840;8.276;2024-02-23T12:43:28;11.00;1.00
9949;DHT22;5013;51.840;8.276;2024-02-23T12:45:55;11.20;1.00
9949;DHT22;5013;51.840;8.276;2024-02-23T12:48:22;11.30;1.00
9949;DHT22;5013;51.840;8.276;2024-02-23T12:50:48;11.20;1.00
9949;DHT22;5013;51.840;8.276;2024-02-23T12:56:00;11.20;1.00
9949;DHT22;5013;51.840;8.276;2024-02-23T12:58:26;11.00;1.00
9949;DHT22;5013;51.840;8.276;2024-02-23T13:00:51;10.80;1.00
9949;DHT22;5013;51.840;8.276;2024-02-23T13:03:17;10.70;1.00
9949;DHT22;5013;51.840;8.276;2024-02-23T13:05:43;10.80;1.00
9949;DHT22;5013;51.840;8.276;2024-02-23T13:08:08;10.70;1.00
9949;DHT22;5013;51.840;8.276;2024-02-23T13:10:34;10.50;1.00
9949;DHT22;5013;51.840;8.276;2024-02-23T13:13:00;10.40;1.00
9949;DHT22;5013;51.840;8.276;2024-02-23T13:15:26;10.50;1.00
9949;DHT22;5013;51.840;8.276;2024-02-23T13:17:51;10.60;1.00
9949;DHT22;5013;51.840;8.276;2024-02-23T13:20:17;10.50;1.00
9949;DHT22;5013;51.840;8.276;2024-02-23T13:22:43;10.40;1.00
9949;DHT22;5013;51.840;8.276;2024-02-23T13:25:08;10.20;1.00
9949;DHT22;5013;51.840;8.276;2024-02-23T13:27:34;10.10;1.00
9949;DHT22;5013;51.840;8.276;2024-02-23T13:29:59;10.10;1.00
9949;DHT22;5013;51.840;8.276;2024-02-23T13:32:25;10.00;1.00
9949;DHT22;5013;51.840;8.276;2024-02-23T13:34:51;9.90;1.00
9949;DHT22;5013;51.840;8.276;2024-02-23T13:37:18;9.90;1.00
9949;DHT22;5013;51.840;8.276;2024-02-23T13:39:43;9.90;1.00
9949;DHT22;5013;51.840;8.276;2024-02-23T13:42:09;9.90;1.00
9949;DHT22;5013;51.840;8.276;2024-02-23T13:44:35;10.00;1.00
9949;DHT22;5013;51.840;8.276;2024-02-23T13:47:01;9.90;1.00
9949;DHT22;5013;51.840;8.276;2024-02-23T13:49:27;9.80;1.00
9949;DHT22;5013;51.840;8.276;2024-02-23T13:51:53;9.80;1.00
9949;DHT22;5013;51.840;8.276;2024-02-23T13:54:19;9.80;1.00
9949;DHT22;5013;51.840;8.276;2024-02-23T13:56:44;9.80;1.00
9949;DHT22;5013;51.840;8.276;2024-02-23T13:59:10;9.70;1.00
9949;DHT22;5013;51.840;8.276;2024-02-23T14:01:35;9.70;1.00
9949;DHT22;5013;51.840;8.276;2024-02-23T14:04:06;9.70;1.00
9949;DHT22;5013;51.840;8.276;2024-02-23T14:06:32;9.70;1.00
9949;DHT22;5013;51.840;8.276;2024-02-23T14:08:58;9.80;1.00
9949;DHT22;5013;51.840;8.276;2024-02-23T14:11:23;9.80;1.00
9949;DHT22;5013;51.840;8.276;2024-02-23T14:13:49;9.70;1.00
9949;DHT22;5013;51.840;8.276;2024-02-23T14:16:16;9.80;1.00
9949;DHT22;5013;51.840;8.276;2024-02-23T14:18:41;9.80;1.00
9949;DHT22;5013;51.840;8.276;2024-02-23T14:21:09;9.80;1.00
9949;DHT22;5013;51.840;8.276;2024-02-23T14:23:35;9.90;1.00
9949;DHT22;5013;51.840;8.276;2024-02-23T14:26:02;9.80;1.00
9949;DHT22;5013;51.840;8.276;2024-02-23T14:28:28;9.80;1.00
9949;DHT22;5013;51.840;8.276;2024-02-23T14:30:54;9.80;1.00
9949;DHT22;5013;51.840;8.276;2024-02-23T14:33:19;9.70;1.00
9949;DHT22;5013;51.840;8.276;2024-02-23T14:35:46;9.70;1.00
9949;DHT22;5013;51.840;8.276;2024-02-23T14:38:11;9.60;1.00
9949;DHT22;5013;51.840;8.276;2024-02-23T14:40:37;9.50;50.00
9949;DHT22;5013;51.840;8.276;2024-02-23T14:43:03;9.50;96.80
9949;DHT22;5013;51.840;8.276;2024-02-23T14:45:29;9.30;86.10
9949;DHT22;5013;51.840;8.276;2024-02-23T14:47:54;9.30;95.40
9949;DHT22;5013;51.840;8.276;2024-02-23T14:50:20;9.30;99.90
9949;DHT22;5013;51.840;8.276;2024-02-23T14:52:45;9.30;99.90
9949;DHT22;5013;51.840;8.276;2024-02-23T14:55:11;9.30;99.90
9949;DHT22;5013;51.840;8.276;2024-02-23T14:57:37;9.20;99.90
9949;DHT22;5013;51.840;8.276;2024-02-23T15:00:04;9.30;99.90
9949;DHT22;5013;51.840;8.276;2024-02-23T15:02:30;9.30;99.90
9949;DHT22;5013;51.840;8.276;2024-02-23T15:04:55;9.30;99.90
9949;DHT22;5013;51.840;8.276;2024-02-23T15:07:21;9.30;99.90
9949;DHT22;5013;51.840;8.276;2024-02-23T15:09:46;9.30;99.90
9949;DHT22;5013;51.840;8.276;2024-02-23T15:12:12;9.20;99.90
9949;DHT22;5013;51.840;8.276;2024-02-23T15:14:39;9.10;99.90
9949;DHT22;5013;51.840;8.276;2024-02-23T15:17:05;9.10;99.90
9949;DHT22;5013;51.840;8.276;2024-02-23T15:19:30;9.00;99.90
9949;DHT22;5013;51.840;8.276;2024-02-23T15:21:56;9.10;99.90
9949;DHT22;5013;51.840;8.276;2024-02-23T15:24:22;9.00;99.90
9949;DHT22;5013;51.840;8.276;2024-02-23T15:26:49;9.00;99.90
9949;DHT22;5013;51.840;8.276;2024-02-23T15:29:15;9.00;99.90
9949;DHT22;5013;51.840;8.276;2024-02-23T15:31:40;9.10;99.90
9949;DHT22;5013;51.840;8.276;2024-02-23T15:34:08;9.00;99.90
9949;DHT22;5013;51.840;8.276;2024-02-23T15:36:33;9.00;99.90
9949;DHT22;5013;51.840;8.276;2024-02-23T15:38:59;9.00;99.90
9949;DHT22;5013;51.840;8.276;2024-02-23T15:41:29;8.90;99.90
9949;DHT22;5013;51.840;8.276;2024-02-23T15:43:55;8.90;99.90
9949;DHT22;5013;51.840;8.276;2024-02-23T15:46:20;8.90;99.90
9949;DHT22;5013;51.840;8.276;2024-02-23T15:48:46;9.00;99.90
9949;DHT22;5013;51.840;8.276;2024-02-23T15:51:11;9.00;99.90
9949;DHT22;5013;51.840;8.276;2024-02-23T15:53:37;8.90;99.90
9949;DHT22;5013;51.840;8.276;2024-02-23T15:56:03;9.00;99.90
9949;DHT22;5013;51.840;8.276;2024-02-23T15:58:28;9.10;99.90
9949;DHT22;5013;51.840;8.276;2024-02-23T16:00:54;9.00;99.90
9949;DHT22;5013;51.840;8.276;2024-02-23T16:03:21;9.10;99.90
9949;DHT22;5013;51.840;8.276;2024-02-23T16:05:47;9.00;99.90
9949;DHT22;5013;51.840;8.276;2024-02-23T16:08:13;9.00;99.90
9949;DHT22;5013;51.840;8.276;2024-02-23T16:10:39;9.00;99.90
9949;DHT22;5013;51.840;8.276;2024-02-23T16:13:05;9.00;99.90
9949;DHT22;5013;51.840;8.276;2024-02-23T16:15:31;8.90;99.90
9949;DHT22;5013;51.840;8.276;2024-02-23T16:17:57;8.90;99.90
9949;DHT22;5013;51.840;8.276;2024-02-23T16:20:23;8.90;99.90